Dades meteomassalio
Diari Summary for Diciembre 21, 2017 Units:  English    Metric   Both
« Previous Day
Next Day »
Diari Semanal Mensual Anual Personalitzat
  Maxima: Minima: Mijana:
Temperatura: TemperatureC °F -3.3 °F 3.6 °F
Rosada: DewpointC °F -5.9 °F -0.4 °F
Humitat: Humidity % 61 % 76 %
Velocitat del vent: WindSpeedKMH mph 0.0 mph 5.5 mph
Racha vent: WindSpeedGustKMH mph - -
Vent:- - West
Pressio: PressurehPa in 1037.5 in -
Pluja: 0.0 in    
Historical Graphs
 
 
Tabular Data for Diciembre 21, 2017
Time Temperature Dew Point Pressure Wind Wind Speed Wind Gust Humidity Rainfall Rate (Hourly) solar Conditions
TemperatureC °F DewpointC °F PressurehPa in Calm     Humidity % HourlyPrecipMM in SolarRadiationWatts/m^2 W/m2 Conditions
00:02 -1.1 °F -4.8 °F 1037.8 in Calm     76 % 0.0 in 0.0 W/m2 CLR
00:07 -1.1 °F -4.6 °F 1037.8 in Calm     77 % 0.0 in 0.0 W/m2 CLR
00:08 -1.1 °F -4.6 °F 1037.8 in Calm     77 % 0.0 in 0.0 W/m2 CLR
00:10 -1.1 °F -4.6 °F 1037.8 in Calm     77 % 0.0 in 0.0 W/m2 CLR
00:15 -1.1 °F -4.8 °F 1037.8 in Calm     76 % 0.0 in 0.0 W/m2 CLR
00:16 -1.1 °F -4.8 °F 1037.8 in Calm     76 % 0.0 in 0.0 W/m2 CLR
00:21 -1.7 °F -5.2 °F 1037.8 in Calm     77 % 0.0 in 0.0 W/m2 CLR
00:22 -1.7 °F -5.3 °F 1037.8 in Calm     76 % 0.0 in 0.0 W/m2 CLR
00:23 -1.7 °F -5.5 °F 1037.8 in Calm     75 % 0.0 in 0.0 W/m2 CLR
00:28 -1.7 °F -5.3 °F 1037.5 in Calm     76 % 0.0 in 0.0 W/m2 CLR
00:29 -1.7 °F -5.3 °F 1037.5 in Calm     76 % 0.0 in 0.0 W/m2 CLR
00:34 -1.7 °F -4.7 °F 1037.5 in Calm     80 % 0.0 in 0.0 W/m2 CLR
00:35 -1.7 °F -4.2 °F 1037.5 in Calm     83 % 0.0 in 0.0 W/m2 CLR
00:40 -1.7 °F -4.5 °F 1037.5 in WNW 9.3 mph 9.3 mph 81 % 0.0 in 0.0 W/m2 CLR
00:42 -1.7 °F -4.5 °F 1037.5 in Calm     81 % 0.0 in 0.0 W/m2 CLR
00:45 -1.7 °F -4.7 °F 1037.8 in West 7.4 mph 7.4 mph 80 % 0.0 in 0.0 W/m2 CLR
00:49 -1.7 °F -4.8 °F 1037.8 in Calm     79 % 0.0 in 0.0 W/m2 CLR
00:50 -1.7 °F -4.8 °F 1037.8 in Calm     79 % 0.0 in 0.0 W/m2 CLR
00:55 -1.7 °F -5.2 °F 1037.8 in Calm     77 % 0.0 in 0.0 W/m2 CLR
00:56 -1.7 °F -5.0 °F 1037.8 in Calm     78 % 0.0 in 0.0 W/m2 CLR
01:01 -1.7 °F -5.3 °F 1037.8 in Calm     76 % 0.0 in 0.0 W/m2 CLR
01:06 -1.7 °F -5.5 °F 1037.8 in Calm     75 % 0.0 in 0.0 W/m2 CLR
01:07 -1.7 °F -5.5 °F 1037.8 in Calm     75 % 0.0 in 0.0 W/m2 CLR
01:08 -1.7 °F -5.3 °F 1037.8 in Calm     76 % 0.0 in 0.0 W/m2 CLR
01:13 -1.1 °F -4.6 °F 1037.8 in Calm     77 % 0.0 in 0.0 W/m2 CLR
01:18 -1.1 °F -4.1 °F 1037.8 in Calm     80 % 0.0 in 0.0 W/m2 CLR
01:19 -1.1 °F -4.1 °F 1038.1 in Calm     80 % 0.0 in 0.0 W/m2 CLR
01:24 -1.1 °F -4.3 °F 1038.1 in Calm     79 % 0.0 in 0.0 W/m2 CLR
01:29 -1.1 °F -4.8 °F 1037.8 in Calm     76 % 0.0 in 0.0 W/m2 CLR
01:31 -1.1 °F -4.8 °F 1037.8 in Calm     76 % 0.0 in 0.0 W/m2 CLR
01:34 -1.1 °F -4.6 °F 1037.8 in Calm     77 % 0.0 in 0.0 W/m2 CLR
01:36 -1.1 °F -4.6 °F 1037.8 in Calm     77 % 0.0 in 0.0 W/m2 CLR
01:41 -1.1 °F -5.0 °F 1037.8 in Calm     75 % 0.0 in 0.0 W/m2 CLR
01:42 -1.1 °F -4.8 °F 1037.8 in Calm     76 % 0.0 in 0.0 W/m2 CLR
01:43 -1.1 °F -4.6 °F 1037.8 in Calm     77 % 0.0 in 0.0 W/m2 CLR
01:47 -1.7 °F -4.5 °F 1037.8 in Calm     81 % 0.0 in 0.0 W/m2 CLR
01:48 -1.7 °F -4.7 °F 1037.8 in Calm     80 % 0.0 in 0.0 W/m2 CLR
01:53 -1.7 °F -4.5 °F 1037.5 in Calm     81 % 0.0 in 0.0 W/m2 CLR
01:58 -1.7 °F -4.5 °F 1037.8 in West 3.7 mph 3.7 mph 81 % 0.0 in 0.0 W/m2 CLR
01:59 -1.7 °F -4.5 °F 1037.8 in West 5.6 mph 5.6 mph 81 % 0.0 in 0.0 W/m2 CLR
02:01 -1.7 °F -4.7 °F 1037.8 in West 5.6 mph 5.6 mph 80 % 0.0 in 0.0 W/m2 CLR
02:06 -1.7 °F -4.8 °F 1037.8 in West 7.4 mph 7.4 mph 79 % 0.0 in 0.0 W/m2 CLR
02:11 -1.7 °F -5.0 °F 1037.8 in Calm     78 % 0.0 in 0.0 W/m2 CLR
02:12 -1.7 °F -5.2 °F 1037.8 in Calm     77 % 0.0 in 0.0 W/m2 CLR
02:17 -1.7 °F -5.9 °F 1037.8 in Calm     73 % 0.0 in 0.0 W/m2 CLR
02:19 -1.7 °F -5.9 °F 1038.1 in Calm     73 % 0.0 in 0.0 W/m2 CLR
02:22 -1.7 °F -5.5 °F 1038.1 in Calm     75 % 0.0 in 0.0 W/m2 CLR
02:26 -1.7 °F -5.2 °F 1038.1 in Calm     77 % 0.0 in 0.0 W/m2 CLR
02:28 -1.7 °F -5.2 °F 1038.1 in Calm     77 % 0.0 in 0.0 W/m2 CLR
02:32 -1.7 °F -4.7 °F 1038.1 in Calm     80 % 0.0 in 0.0 W/m2 CLR
02:36 -1.7 °F -4.7 °F 1038.1 in Calm     80 % 0.0 in 0.0 W/m2 CLR
02:39 -2.2 °F -5.2 °F 1038.1 in Calm     80 % 0.0 in 0.0 W/m2 CLR
02:41 -2.2 °F -5.2 °F 1038.1 in Calm     80 % 0.0 in 0.0 W/m2 CLR
02:46 -2.2 °F -5.4 °F 1038.1 in Calm     79 % 0.0 in 0.0 W/m2 CLR
02:47 -2.2 °F -5.4 °F 1038.1 in Calm     79 % 0.0 in 0.0 W/m2 CLR
02:52 -2.2 °F -5.6 °F 1038.1 in Calm     78 % 0.0 in 0.0 W/m2 CLR
02:53 -2.2 °F -5.6 °F 1038.1 in Calm     78 % 0.0 in 0.0 W/m2 CLR
02:55 -2.2 °F -5.6 °F 1038.1 in Calm     78 % 0.0 in 0.0 W/m2 CLR
02:58 -2.2 °F -5.6 °F 1038.1 in Calm     78 % 0.0 in 0.0 W/m2 CLR
03:01 -2.2 °F -5.6 °F 1038.1 in Calm     78 % 0.0 in 0.0 W/m2 CLR
03:05 -2.2 °F -5.4 °F 1038.1 in Calm     79 % 0.0 in 0.0 W/m2 CLR
03:10 -2.2 °F -5.2 °F 1038.1 in Calm     80 % 0.0 in 0.0 W/m2 CLR
03:12 -2.2 °F -5.2 °F 1038.1 in Calm     80 % 0.0 in 0.0 W/m2 CLR
03:16 -2.2 °F -5.1 °F 1038.1 in Calm     81 % 0.0 in 0.0 W/m2 CLR
03:17 -2.2 °F -5.1 °F 1037.8 in WSW 7.4 mph 7.4 mph 81 % 0.0 in 0.0 W/m2 CLR
03:22 -1.7 °F -4.3 °F 1037.8 in SSW 3.7 mph   82 % 0.0 in 0.0 W/m2 CLR
03:23 -2.2 °F -4.9 °F 1037.8 in Calm     82 % 0.0 in 0.0 W/m2 CLR
03:28 -1.7 °F -4.5 °F 1038.1 in East 7.4 mph 7.4 mph 81 % 0.0 in 0.0 W/m2 CLR
03:29 -1.7 °F -4.5 °F 1038.1 in East 5.6 mph 5.6 mph 81 % 0.0 in 0.0 W/m2 CLR
03:34 -1.7 °F -4.2 °F 1038.1 in East 3.7 mph   83 % 0.0 in 0.0 W/m2 CLR
03:35 -1.1 °F -3.6 °F 1038.1 in Calm     83 % 0.0 in 0.0 W/m2 CLR
03:40 -1.7 °F -4.2 °F 1038.1 in Calm     83 % 0.0 in 0.0 W/m2 CLR
03:43 -1.7 °F -4.3 °F 1038.1 in Calm     82 % 0.0 in 0.0 W/m2 CLR
03:48 -1.7 °F -4.0 °F 1038.1 in Calm     84 % 0.0 in 0.0 W/m2 CLR
03:49 -1.7 °F -4.0 °F 1038.1 in Calm     84 % 0.0 in 0.0 W/m2 CLR
03:54 -1.7 °F -4.3 °F 1037.8 in Calm     82 % 0.0 in 0.0 W/m2 CLR
03:59 -2.2 °F -4.7 °F 1038.1 in Calm     83 % 0.0 in 0.0 W/m2 CLR
04:03 -2.2 °F -4.9 °F 1038.1 in East 6.4 mph 6.4 mph 82 % 0.0 in 0.0 W/m2 CLR
04:07 -2.2 °F -4.9 °F 1038.1 in Calm     82 % 0.0 in 0.0 W/m2 CLR
04:08 -2.2 °F -4.9 °F 1038.1 in Calm     82 % 0.0 in 0.0 W/m2 CLR
04:13 -1.7 °F -4.3 °F 1038.1 in Calm     82 % 0.0 in 0.0 W/m2 CLR
04:18 -1.1 °F -3.6 °F 1038.1 in Calm     83 % 0.0 in 0.0 W/m2 CLR
04:23 -1.7 °F -4.2 °F 1038.1 in Calm     83 % 0.0 in 0.0 W/m2 CLR
04:24 -1.7 °F -4.2 °F 1038.1 in Calm     83 % 0.0 in 0.0 W/m2 CLR
04:29 -1.7 °F -4.0 °F 1038.1 in Calm     84 % 0.0 in 0.0 W/m2 CLR
04:33 -1.7 °F -4.0 °F 1038.1 in Calm     84 % 0.0 in 0.0 W/m2 CLR
04:38 -2.2 °F -4.6 °F 1038.1 in Calm     84 % 0.0 in 0.0 W/m2 CLR
04:41 -2.2 °F -4.6 °F 1038.1 in Calm     84 % 0.0 in 0.0 W/m2 CLR
04:44 -2.2 °F -4.4 °F 1038.1 in Calm     85 % 0.0 in 0.0 W/m2 CLR
04:49 -2.2 °F -4.4 °F 1038.1 in Calm     85 % 0.0 in 0.0 W/m2 CLR
04:52 -2.2 °F -4.4 °F 1038.1 in Calm     85 % 0.0 in 0.0 W/m2 CLR
04:55 -2.2 °F -4.4 °F 1038.1 in Calm   0.5 mph 85 % 0.0 in 0.0 W/m2 CLR
05:00 -2.2 °F -4.2 °F 1038.1 in NW 3.2 mph 3.2 mph 86 % 0.0 in 0.0 W/m2 CLR
05:01 -2.2 °F -4.2 °F 1037.8 in WNW 5.6 mph 5.6 mph 86 % 0.0 in 0.0 W/m2 CLR
05:06 -2.8 °F -4.2 °F 1037.8 in WNW 16.7 mph 16.7 mph 90 % 0.0 in 0.0 W/m2 CLR
05:09 -2.8 °F -4.5 °F 1037.8 in WNW 13.0 mph 13.0 mph 88 % 0.0 in 0.0 W/m2 CLR
05:12 -2.8 °F -4.9 °F 1037.8 in NW 16.7 mph 16.7 mph 85 % 0.0 in 0.0 W/m2 CLR
05:19 -2.8 °F -5.3 °F 1038.1 in West 9.7 mph 9.7 mph 83 % 0.0 in 0.0 W/m2 CLR
05:22 -2.8 °F -5.3 °F 1038.1 in WNW 7.4 mph 7.4 mph 83 % 0.0 in 0.0 W/m2 CLR
05:25 -2.8 °F -5.7 °F 1038.1 in Calm     80 % 0.0 in 0.0 W/m2 CLR
05:29 -2.8 °F -5.9 °F 1038.1 in Calm     79 % 0.0 in 0.0 W/m2 CLR
05:30 -2.8 °F -5.9 °F 1037.8 in Calm     79 % 0.0 in 0.0 W/m2 CLR
05:35 -2.8 °F -5.9 °F 1037.8 in Calm     79 % 0.0 in 0.0 W/m2 CLR
05:36 -2.8 °F -5.7 °F 1037.8 in Calm     80 % 0.0 in 0.0 W/m2 CLR
05:41 -2.2 °F -5.4 °F 1037.8 in Calm     79 % 0.0 in 0.0 W/m2 CLR
05:43 -2.2 °F -5.4 °F 1037.8 in Calm     79 % 0.0 in 0.0 W/m2 CLR
05:44 -2.2 °F -5.4 °F 1037.8 in Calm     79 % 0.0 in 0.0 W/m2 CLR
05:48 -2.2 °F -5.6 °F 1037.8 in Calm     78 % 0.0 in 0.0 W/m2 CLR
05:50 -2.2 °F -5.6 °F 1038.1 in Calm     78 % 0.0 in 0.0 W/m2 CLR
05:53 -2.2 °F -5.4 °F 1038.1 in Calm     79 % 0.0 in 0.0 W/m2 CLR
05:58 -2.8 °F -5.3 °F 1038.1 in Calm     83 % 0.0 in 0.0 W/m2 CLR
06:03 -2.8 °F -5.1 °F 1038.1 in Calm     84 % 0.0 in 0.0 W/m2 CLR
06:05 -2.8 °F -5.1 °F 1038.1 in Calm     84 % 0.0 in 0.0 W/m2 CLR
06:10 -2.8 °F -4.9 °F 1038.1 in Calm     85 % 0.0 in 0.0 W/m2 CLR
06:12 -2.8 °F -4.8 °F 1038.1 in Calm     86 % 0.0 in 0.0 W/m2 CLR
06:15 -2.8 °F -4.8 °F 1038.1 in Calm     86 % 0.0 in 0.0 W/m2 CLR
06:19 -2.8 °F -4.8 °F 1038.1 in Calm     86 % 0.0 in 0.0 W/m2 CLR
06:21 -2.8 °F -4.8 °F 1038.1 in Calm     86 % 0.0 in 0.0 W/m2 CLR
06:24 -2.8 °F -4.8 °F 1038.1 in WNW 1.6 mph   86 % 0.0 in 0.0 W/m2 CLR
06:26 -2.8 °F -4.9 °F 1038.1 in WNW 3.7 mph 3.7 mph 85 % 0.0 in 0.0 W/m2 CLR
06:31 -2.8 °F -4.9 °F 1038.1 in West 3.7 mph 3.7 mph 85 % 0.0 in 0.0 W/m2 CLR
06:35 -2.8 °F -4.9 °F 1038.1 in Calm     85 % 0.0 in 0.0 W/m2 CLR
06:36 -2.8 °F -4.8 °F 1038.1 in Calm     86 % 0.0 in 0.0 W/m2 CLR
06:41 -2.8 °F -4.8 °F 1038.1 in Calm     86 % 0.0 in 0.0 W/m2 CLR
06:42 -2.8 °F -4.8 °F 1038.1 in Calm     86 % 0.0 in 0.0 W/m2 CLR
06:46 -2.8 °F -4.8 °F 1038.1 in Calm     86 % 0.0 in 0.0 W/m2 CLR
06:48 -2.8 °F -4.8 °F 1038.1 in Calm     86 % 0.0 in 0.0 W/m2 CLR
06:53 -3.3 °F -5.3 °F 1038.5 in Calm     86 % 0.0 in 0.0 W/m2 CLR
06:58 -3.3 °F -5.2 °F 1038.5 in Calm     87 % 0.0 in 0.0 W/m2 CLR
06:59 -3.3 °F -5.2 °F 1038.5 in Calm     87 % 0.0 in 0.0 W/m2 CLR
07:01 -3.3 °F -5.2 °F 1038.5 in Calm     87 % 0.0 in 0.0 W/m2 CLR
07:04 -3.3 °F -5.2 °F 1038.1 in Calm     87 % 0.0 in 0.0 W/m2 CLR
07:08 -3.3 °F -5.1 °F 1038.5 in Calm     88 % 0.0 in 0.0 W/m2 CLR
07:10 -3.3 °F -5.1 °F 1038.1 in Calm     88 % 0.0 in 0.0 W/m2 CLR
07:15 -3.3 °F -5.3 °F 1038.1 in Calm     86 % 0.0 in 0.0 W/m2 CLR
07:16 -3.3 °F -5.3 °F 1038.5 in Calm     86 % 0.0 in 0.0 W/m2 CLR
07:21 -3.3 °F -5.1 °F 1038.5 in Calm     88 % 0.0 in 0.0 W/m2 CLR
07:23 -3.3 °F -5.1 °F 1038.5 in Calm     88 % 0.0 in 0.0 W/m2 CLR
07:26 -3.3 °F -5.1 °F 1038.5 in Calm     88 % 0.0 in 0.0 W/m2 CLR
07:30 -3.3 °F -5.2 °F 1038.5 in Calm     87 % 0.0 in 0.0 W/m2 CLR
07:32 -3.3 °F -5.1 °F 1038.5 in Calm     88 % 0.0 in 0.0 W/m2 CLR
07:37 -3.3 °F -4.9 °F 1038.8 in Calm     89 % 0.0 in 0.0 W/m2 CLR
07:42 -3.3 °F -4.9 °F 1038.5 in Calm     89 % 0.0 in 0.0 W/m2 CLR
07:44 -3.3 °F -4.9 °F 1038.8 in Calm     89 % 0.0 in 0.0 W/m2 CLR
07:46 -3.3 °F -4.9 °F 1038.8 in Calm     89 % 0.0 in 0.0 W/m2 CLR
07:50 -3.3 °F -5.2 °F 1038.8 in Calm     87 % 0.0 in 0.0 W/m2 CLR
07:55 -2.8 °F -4.7 °F 1038.8 in Calm     87 % 0.0 in 0.0 W/m2 CLR
07:58 -2.8 °F -4.7 °F 1038.8 in Calm     87 % 0.0 in 0.0 W/m2 CLR
08:03 -2.8 °F -4.8 °F 1038.8 in Calm     86 % 0.0 in 0.0 W/m2 CLR
08:09 -2.8 °F -4.3 °F 1038.8 in Calm     89 % 0.0 in 0.0 W/m2 CLR
08:10 -2.8 °F -4.3 °F 1038.8 in Calm     89 % 0.0 in 0.0 W/m2 CLR
08:11 -2.8 °F -4.3 °F 1038.8 in WNW 5.6 mph 5.6 mph 89 % 0.0 in 0.0 W/m2 OVC
08:16 -2.8 °F -4.2 °F 1038.8 in WNW 6.4 mph 6.4 mph 90 % 0.0 in 0.0 W/m2 OVC
08:18 -2.8 °F -4.1 °F 1038.8 in WNW 5.6 mph 5.6 mph 91 % 0.0 in 0.0 W/m2 OVC
08:19 -2.8 °F -4.1 °F 1038.8 in NW 3.7 mph 3.7 mph 91 % 0.0 in 0.0 W/m2 OVC
08:24 -2.2 °F -3.5 °F 1038.8 in WNW 11.1 mph 11.1 mph 91 % 0.0 in 5.0 W/m2 OVC
08:26 -2.2 °F -3.7 °F 1039.2 in Calm     90 % 0.0 in 5.0 W/m2 OVC
08:29 -2.2 °F -3.8 °F 1039.2 in NW 9.3 mph 9.3 mph 89 % 0.0 in 7.0 W/m2 BKN
08:34 -2.2 °F -4.2 °F 1039.2 in WNW 16.1 mph 16.1 mph 86 % 0.0 in 9.0 W/m2 BKN
08:36 -2.2 °F -4.2 °F 1039.2 in NW 16.7 mph 16.7 mph 86 % 0.0 in 11.0 W/m2 BKN
08:41 -2.2 °F -4.7 °F 1039.2 in NW 18.5 mph 18.5 mph 83 % 0.0 in 12.0 W/m2 BKN
08:46 -2.2 °F -5.1 °F 1039.5 in NNW 16.7 mph 16.7 mph 81 % 0.0 in 14.0 W/m2 BKN
08:50 -2.2 °F -5.1 °F 1039.5 in NW 13.0 mph 13.0 mph 81 % 0.0 in 18.0 W/m2 BKN
08:53 -2.2 °F -5.1 °F 1039.5 in NW 16.7 mph 16.7 mph 81 % 0.0 in 21.0 W/m2 BKN
08:59 -1.1 °F -3.9 °F 1039.5 in WNW 8.0 mph 8.0 mph 81 % 0.0 in 26.0 W/m2 BKN
09:09 -1.1 °F -4.1 °F 1039.5 in NNW 3.7 mph 3.7 mph 80 % 0.0 in 51.0 W/m2 SCT
09:14 -0.6 °F -3.6 °F 1039.5 in Calm     80 % 0.0 in 58.0 W/m2 SCT
09:16 -0.6 °F -3.6 °F 1039.8 in Calm     80 % 0.0 in 65.0 W/m2 SCT
09:21 0.6 °F -2.5 °F 1039.8 in Calm     80 % 0.0 in 79.0 W/m2 FEW
09:23 0.6 °F -2.5 °F 1039.8 in Calm     80 % 0.0 in 83.0 W/m2 FEW
09:28 0.6 °F -2.7 °F 1039.5 in Calm     79 % 0.0 in 95.0 W/m2 FEW
09:30 0.6 °F -2.7 °F 1039.5 in Calm     79 % 0.0 in 84.0 W/m2 FEW
09:34 1.1 °F -2.1 °F 1039.8 in Calm     79 % 0.0 in 111.0 W/m2 CLR
09:37 1.1 °F -2.1 °F 1039.8 in Calm     79 % 0.0 in 118.0 W/m2 CLR
09:40 1.1 °F -2.1 °F 1039.8 in Calm     79 % 0.0 in 127.0 W/m2 CLR
09:45 1.7 °F -1.8 °F 1039.8 in Calm     78 % 0.0 in 127.0 W/m2 CLR
09:50 2.8 °F -0.8 °F 1039.8 in Calm     77 % 0.0 in 155.0 W/m2 CLR
09:51 2.8 °F -0.8 °F 1039.8 in Calm     77 % 0.0 in 158.0 W/m2 CLR
09:56 2.8 °F -1.1 °F 1039.8 in Calm     76 % 0.0 in 171.0 W/m2 CLR
10:00 2.8 °F -1.1 °F 1039.8 in Calm     76 % 0.0 in 111.0 W/m2 CLR
10:02 2.8 °F -1.1 °F 1039.8 in Calm     76 % 0.0 in 144.0 W/m2 CLR
10:06 2.8 °F -1.2 °F 1040.2 in Calm     75 % 0.0 in 158.0 W/m2 CLR
10:09 2.8 °F -1.2 °F 1040.2 in Calm     75 % 0.0 in 176.0 W/m2 CLR
10:11 2.8 °F -1.4 °F 1040.2 in Calm     74 % 0.0 in 181.0 W/m2 CLR
10:16 3.3 °F -0.9 °F 1040.2 in Calm     74 % 0.0 in 209.0 W/m2 CLR
10:17 3.3 °F -0.9 °F 1040.2 in Calm     74 % 0.0 in 227.0 W/m2 CLR
10:18 3.9 °F -0.3 °F 1040.2 in Calm     74 % 0.0 in 229.0 W/m2 CLR
10:23 3.9 °F -0.5 °F 1040.2 in Calm     73 % 0.0 in 241.0 W/m2 CLR
10:25 5.0 °F 0.4 °F 1040.2 in NW 17.7 mph 17.7 mph 72 % 0.0 in 248.0 W/m2 CLR
10:29 5.6 °F 0.9 °F 1040.2 in NW 18.5 mph 18.5 mph 72 % 0.0 in 255.0 W/m2 CLR
10:32 6.7 °F 1.8 °F 1040.2 in NW 16.7 mph 16.7 mph 71 % 0.0 in 260.0 W/m2 CLR
10:34 7.2 °F 2.3 °F 1040.2 in NNW 5.6 mph 5.6 mph 71 % 0.0 in 267.0 W/m2 CLR
10:39 7.8 °F 2.7 °F 1040.5 in NW 3.2 mph 3.2 mph 70 % 0.0 in 276.0 W/m2 CLR
10:41 8.3 °F 3.2 °F 1040.5 in NNW 16.7 mph 16.7 mph 70 % 0.0 in 279.0 W/m2 CLR
10:45 8.9 °F 3.5 °F 1040.5 in West 16.7 mph 16.7 mph 69 % 0.0 in 288.0 W/m2 CLR
10:50 9.4 °F 4.1 °F 1040.5 in NW 27.8 mph 27.8 mph 69 % 0.0 in 295.0 W/m2 CLR
10:51 9.4 °F 3.8 °F 1040.5 in NW 18.5 mph 18.5 mph 68 % 0.0 in 299.0 W/m2 CLR
10:55 9.4 °F 4.1 °F 1040.5 in NW 31.5 mph 31.5 mph 69 % 0.0 in 304.0 W/m2 CLR
10:57 9.4 °F 4.1 °F 1040.9 in NW 20.4 mph 20.4 mph 69 % 0.0 in 309.0 W/m2 CLR
11:01 9.4 °F 4.1 °F 1040.9 in North 20.4 mph 20.4 mph 69 % 0.0 in 313.0 W/m2 CLR
11:03 9.4 °F 4.1 °F 1040.9 in NNW 25.7 mph 25.7 mph 69 % 0.0 in 316.0 W/m2 CLR
11:07 9.4 °F 4.2 °F 1040.9 in NNW 22.2 mph 22.2 mph 70 % 0.0 in 325.0 W/m2 CLR
11:09 9.4 °F 4.2 °F 1040.9 in NW 22.2 mph 22.2 mph 70 % 0.0 in 327.0 W/m2 CLR
11:12 9.4 °F 4.2 °F 1040.9 in NW 18.5 mph 18.5 mph 70 % 0.0 in 332.0 W/m2 CLR
11:14 9.4 °F 4.2 °F 1040.9 in NW 20.4 mph 20.4 mph 70 % 0.0 in 336.0 W/m2 CLR
11:19 9.4 °F 4.1 °F 1040.5 in NW 3.7 mph 3.7 mph 69 % 0.0 in 343.0 W/m2 CLR
11:20 10.0 °F 4.8 °F 1040.5 in NW 12.9 mph 12.9 mph 70 % 0.0 in 345.0 W/m2 CLR
11:25 10.0 °F 4.6 °F 1040.5 in NNW 20.4 mph 20.4 mph 69 % 0.0 in 352.0 W/m2 CLR
11:26 10.0 °F 4.6 °F 1040.5 in WNW 20.4 mph 20.4 mph 69 % 0.0 in 353.0 W/m2 CLR
11:28 10.0 °F 4.8 °F 1040.5 in NW 16.7 mph 16.7 mph 70 % 0.0 in 357.0 W/m2 CLR
11:32 10.0 °F 4.6 °F 1040.5 in NNW 25.7 mph 25.7 mph 69 % 0.0 in 362.0 W/m2 CLR
11:33 10.0 °F 4.6 °F 1040.5 in North 25.7 mph 25.7 mph 69 % 0.0 in 362.0 W/m2 CLR
11:38 10.0 °F 4.6 °F 1040.5 in WNW 18.5 mph 18.5 mph 69 % 0.0 in 366.0 W/m2 CLR
11:43 10.0 °F 4.6 °F 1040.5 in NNW 24.1 mph 24.1 mph 69 % 0.0 in 374.0 W/m2 CLR
11:44 10.0 °F 4.6 °F 1040.5 in NW 24.1 mph 24.1 mph 69 % 0.0 in 374.0 W/m2 CLR
11:49 10.6 °F 4.9 °F 1040.5 in NW 31.5 mph 31.5 mph 68 % 0.0 in 381.0 W/m2 CLR
11:54 10.6 °F 4.9 °F 1040.5 in North 29.6 mph 29.6 mph 68 % 0.0 in 387.0 W/m2 CLR
11:55 10.6 °F 4.9 °F 1040.2 in North 37.0 mph 37.0 mph 68 % 0.0 in 387.0 W/m2 CLR
12:00 10.6 °F 4.9 °F 1040.5 in NNW 18.5 mph 18.5 mph 68 % 0.0 in 392.0 W/m2 CLR
12:01 10.6 °F 4.9 °F 1040.2 in NNW 20.9 mph 20.9 mph 68 % 0.0 in 392.0 W/m2 CLR
12:02 10.6 °F 4.9 °F 1040.2 in NW 22.2 mph 22.2 mph 68 % 0.0 in 394.0 W/m2 CLR
12:07 11.1 °F 5.2 °F 1040.2 in NNE 20.4 mph 20.4 mph 67 % 0.0 in 397.0 W/m2 CLR
12:10 11.1 °F 5.2 °F 1040.2 in NNW 14.8 mph 14.8 mph 67 % 0.0 in 401.0 W/m2 CLR
12:13 11.1 °F 5.0 °F 1040.2 in NNW 19.3 mph 19.3 mph 66 % 0.0 in 403.0 W/m2 CLR
12:18 11.1 °F 5.0 °F 1040.2 in NW 18.5 mph 18.5 mph 66 % 0.0 in 406.0 W/m2 CLR
12:19 11.1 °F 5.0 °F 1040.2 in NNW 20.9 mph 20.9 mph 66 % 0.0 in 309.0 W/m2 CLR
12:20 11.1 °F 5.0 °F 1040.2 in NW 20.4 mph 20.4 mph 66 % 0.0 in 406.0 W/m2 CLR
12:25 11.1 °F 5.0 °F 1039.8 in NNW 16.7 mph 16.7 mph 66 % 0.0 in 408.0 W/m2 CLR
12:26 11.1 °F 5.0 °F 1040.2 in NNW 20.4 mph 20.4 mph 66 % 0.0 in 408.0 W/m2 CLR
12:28 11.1 °F 4.8 °F 1040.2 in NW 18.5 mph 18.5 mph 65 % 0.0 in 411.0 W/m2 CLR
12:31 11.7 °F 5.3 °F 1040.2 in NNW 18.5 mph 18.5 mph 65 % 0.0 in 413.0 W/m2 CLR
12:35 11.7 °F 5.3 °F 1040.2 in NW 20.4 mph 20.4 mph 65 % 0.0 in 415.0 W/m2 CLR
12:36 11.7 °F 5.3 °F 1040.2 in NNW 20.4 mph 20.4 mph 65 % 0.0 in 417.0 W/m2 CLR
12:41 11.7 °F 5.1 °F 1040.2 in NNW 25.9 mph 25.9 mph 64 % 0.0 in 415.0 W/m2 CLR
12:45 11.7 °F 5.1 °F 1039.8 in NNW 25.9 mph 25.9 mph 64 % 0.0 in 417.0 W/m2 CLR
12:47 11.7 °F 5.1 °F 1040.2 in NNW 24.1 mph 24.1 mph 64 % 0.0 in 418.0 W/m2 CLR
12:52 12.2 °F 5.6 °F 1039.8 in NNE 25.9 mph 25.9 mph 64 % 0.0 in 420.0 W/m2 CLR
12:57 12.2 °F 5.6 °F 1039.8 in NNW 20.4 mph 20.4 mph 64 % 0.0 in 417.0 W/m2 CLR
12:59 12.2 °F 5.6 °F 1039.8 in NNW 14.8 mph 14.8 mph 64 % 0.0 in 417.0 W/m2 CLR
13:04 12.2 °F 5.6 °F 1039.8 in NNW 22.5 mph 22.5 mph 64 % 0.0 in 417.0 W/m2 CLR
13:07 12.2 °F 5.4 °F 1039.8 in North 22.5 mph 22.5 mph 63 % 0.0 in 418.0 W/m2 CLR
13:11 12.2 °F 5.4 °F 1039.8 in WNW 18.5 mph 18.5 mph 63 % 0.0 in 417.0 W/m2 CLR
13:14 12.2 °F 5.4 °F 1039.8 in NNW 20.4 mph 20.4 mph 63 % 0.0 in 415.0 W/m2 CLR
13:17 12.2 °F 5.4 °F 1039.8 in NW 14.8 mph 14.8 mph 63 % 0.0 in 415.0 W/m2 CLR
13:20 12.8 °F 5.9 °F 1039.5 in NW 18.5 mph 18.5 mph 63 % 0.0 in 413.0 W/m2 CLR
13:23 12.8 °F 5.9 °F 1039.5 in NNW 20.9 mph 20.9 mph 63 % 0.0 in 413.0 W/m2 CLR
13:27 12.2 °F 5.4 °F 1039.5 in NW 24.1 mph 24.1 mph 63 % 0.0 in 413.0 W/m2 CLR
13:28 12.2 °F 5.4 °F 1039.5 in NNW 24.1 mph 24.1 mph 63 % 0.0 in 410.0 W/m2 CLR
13:33 12.2 °F 5.4 °F 1039.5 in North 18.5 mph 18.5 mph 63 % 0.0 in 410.0 W/m2 CLR
13:34 12.2 °F 5.4 °F 1039.5 in NNW 20.9 mph 20.9 mph 63 % 0.0 in 408.0 W/m2 CLR
13:39 12.8 °F 5.7 °F 1039.5 in NNW 24.1 mph 24.1 mph 62 % 0.0 in 406.0 W/m2 CLR
13:42 12.8 °F 5.7 °F 1039.5 in NW 24.1 mph 24.1 mph 62 % 0.0 in 404.0 W/m2 CLR
13:44 12.8 °F 5.7 °F 1039.5 in NW 24.1 mph 24.1 mph 62 % 0.0 in 403.0 W/m2 CLR
13:49 12.8 °F 5.7 °F 1039.5 in North 18.5 mph 18.5 mph 62 % 0.0 in 399.0 W/m2 CLR
13:50 12.8 °F 5.7 °F 1039.5 in North 19.3 mph 19.3 mph 62 % 0.0 in 397.0 W/m2 CLR
13:54 12.8 °F 5.7 °F 1039.5 in NNW 18.5 mph 18.5 mph 62 % 0.0 in 394.0 W/m2 CLR
13:56 12.8 °F 5.7 °F 1039.5 in NNW 20.9 mph 20.9 mph 62 % 0.0 in 390.0 W/m2 CLR
14:01 12.8 °F 5.7 °F 1039.2 in North 16.7 mph 16.7 mph 62 % 0.0 in 387.0 W/m2 CLR
14:02 12.8 °F 5.7 °F 1039.5 in North 16.7 mph 16.7 mph 62 % 0.0 in 387.0 W/m2 CLR
14:07 12.8 °F 5.7 °F 1039.5 in NNE 16.1 mph 16.1 mph 62 % 0.0 in 381.0 W/m2 CLR
14:11 12.8 °F 5.4 °F 1039.2 in NNE 14.8 mph 14.8 mph 61 % 0.0 in 378.0 W/m2 CLR
14:12 12.8 °F 5.4 °F 1039.2 in ENE 14.8 mph 14.8 mph 61 % 0.0 in 376.0 W/m2 CLR
14:17 12.8 °F 5.7 °F 1039.2 in NW 18.5 mph 18.5 mph 62 % 0.0 in 371.0 W/m2 CLR
14:18 12.2 °F 5.2 °F 1039.2 in North 18.5 mph 18.5 mph 62 % 0.0 in 369.0 W/m2 CLR
14:23 12.8 °F 5.7 °F 1039.2 in NNW 16.7 mph 16.7 mph 62 % 0.0 in 364.0 W/m2 CLR
14:28 12.8 °F 5.4 °F 1039.2 in North 16.1 mph 16.1 mph 61 % 0.0 in 359.0 W/m2 CLR
14:30 12.8 °F 5.4 °F 1039.2 in NW 13.0 mph 13.0 mph 61 % 0.0 in 355.0 W/m2 CLR
14:34 12.8 °F 5.4 °F 1039.2 in North 18.5 mph 18.5 mph 61 % 0.0 in 350.0 W/m2 CLR
14:36 12.8 °F 5.4 °F 1039.2 in NNW 24.1 mph 24.1 mph 61 % 0.0 in 348.0 W/m2 CLR
14:41 12.8 °F 5.4 °F 1039.2 in NNW 14.8 mph 14.8 mph 61 % 0.0 in 339.0 W/m2 CLR
14:42 12.8 °F 5.7 °F 1038.8 in North 18.5 mph 18.5 mph 62 % 0.0 in 338.0 W/m2 CLR
14:47 12.8 °F 5.7 °F 1039.2 in NNW 14.8 mph 14.8 mph 62 % 0.0 in 329.0 W/m2 CLR
14:48 12.8 °F 5.7 °F 1039.2 in North 14.8 mph 14.8 mph 62 % 0.0 in 329.0 W/m2 CLR
14:53 12.8 °F 5.7 °F 1039.2 in NNW 16.7 mph 16.7 mph 62 % 0.0 in 320.0 W/m2 CLR
14:57 12.8 °F 5.7 °F 1039.2 in North 16.7 mph 16.7 mph 62 % 0.0 in 313.0 W/m2 CLR
14:59 12.8 °F 5.7 °F 1039.2 in North 17.7 mph 17.7 mph 62 % 0.0 in 311.0 W/m2 CLR
15:03 12.8 °F 5.7 °F 1039.2 in NNE 18.5 mph 18.5 mph 62 % 0.0 in 304.0 W/m2 CLR
15:05 12.8 °F 5.7 °F 1039.2 in NNE 18.5 mph 18.5 mph 62 % 0.0 in 301.0 W/m2 CLR
15:09 12.8 °F 5.7 °F 1039.2 in NNW 16.7 mph 16.7 mph 62 % 0.0 in 294.0 W/m2 CLR
15:10 12.8 °F 5.7 °F 1038.8 in NNW 16.7 mph 16.7 mph 62 % 0.0 in 290.0 W/m2 CLR
15:15 12.8 °F 5.7 °F 1039.2 in North 12.9 mph 12.9 mph 62 % 0.0 in 281.0 W/m2 CLR
15:16 12.8 °F 5.7 °F 1039.2 in North 13.0 mph 13.0 mph 62 % 0.0 in 281.0 W/m2 CLR
15:21 13.3 °F 5.9 °F 1039.2 in NNW 13.0 mph 13.0 mph 61 % 0.0 in 272.0 W/m2 CLR
15:22 13.3 °F 5.9 °F 1039.2 in NNW 5.6 mph   61 % 0.0 in 269.0 W/m2 CLR
15:25 13.3 °F 5.9 °F 1039.2 in North 14.8 mph 14.8 mph 61 % 0.0 in 264.0 W/m2 CLR
15:27 12.8 °F 5.4 °F 1039.2 in North 16.7 mph 16.7 mph 61 % 0.0 in 258.0 W/m2 CLR
15:30 13.3 °F 6.2 °F 1039.2 in North 14.8 mph 14.8 mph 62 % 0.0 in 250.0 W/m2 CLR
15:32 12.8 °F 5.7 °F 1039.2 in North 16.7 mph 16.7 mph 62 % 0.0 in 244.0 W/m2 CLR
15:37 12.8 °F 5.7 °F 1039.2 in NNE 14.8 mph 14.8 mph 62 % 0.0 in 232.0 W/m2 CLR
15:42 12.8 °F 5.9 °F 1039.2 in North 11.1 mph 11.1 mph 63 % 0.0 in 218.0 W/m2 CLR
15:44 12.8 °F 5.9 °F 1039.2 in NNW 14.8 mph 14.8 mph 63 % 0.0 in 214.0 W/m2 CLR
15:49 12.8 °F 5.9 °F 1039.2 in NW 13.0 mph 13.0 mph 63 % 0.0 in 200.0 W/m2 CLR
15:50 12.8 °F 5.9 °F 1039.2 in NW 13.0 mph 13.0 mph 63 % 0.0 in 200.0 W/m2 CLR
15:51 12.8 °F 5.7 °F 1039.2 in NW 11.1 mph 11.1 mph 62 % 0.0 in 199.0 W/m2 CLR
15:56 12.8 °F 5.7 °F 1039.2 in NW 14.8 mph 14.8 mph 62 % 0.0 in 186.0 W/m2 CLR
15:58 12.2 °F 5.2 °F 1039.2 in NW 13.0 mph 13.0 mph 62 % 0.0 in 178.0 W/m2 CLR
16:02 12.2 °F 5.2 °F 1039.2 in NW 16.7 mph 16.7 mph 62 % 0.0 in 171.0 W/m2 CLR
16:05 12.2 °F 5.2 °F 1039.2 in NNW 13.0 mph 13.0 mph 62 % 0.0 in 160.0 W/m2 CLR
16:08 12.2 °F 5.2 °F 1039.2 in NW 11.1 mph 11.1 mph 62 % 0.0 in 153.0 W/m2 CLR
16:13 12.2 °F 5.2 °F 1039.2 in NW 1.6 mph 1.6 mph 62 % 0.0 in 139.0 W/m2 CLR
16:14 12.2 °F 5.2 °F 1039.2 in NW 3.7 mph 3.7 mph 62 % 0.0 in 137.0 W/m2 CLR
16:19 11.7 °F 4.6 °F 1039.2 in NW 11.1 mph 11.1 mph 62 % 0.0 in 123.0 W/m2 CLR
16:24 11.7 °F 4.6 °F 1039.2 in NNW 11.3 mph 11.3 mph 62 % 0.0 in 109.0 W/m2 CLR
16:26 11.7 °F 4.6 °F 1039.2 in NNW 13.0 mph 13.0 mph 62 % 0.0 in 104.0 W/m2 CLR
16:28 11.7 °F 4.6 °F 1039.2 in NNW 13.0 mph 13.0 mph 62 % 0.0 in 98.0 W/m2 CLR
16:31 11.7 °F 4.6 °F 1039.2 in NNW 7.4 mph 7.4 mph 62 % 0.0 in 91.0 W/m2 CLR
16:36 11.7 °F 4.6 °F 1039.2 in Calm     62 % 0.0 in 79.0 W/m2 FEW
16:39 11.7 °F 4.6 °F 1039.2 in Calm     62 % 0.0 in 74.0 W/m2 FEW
16:41 11.1 °F 4.1 °F 1039.2 in Calm     62 % 0.0 in 58.0 W/m2 SCT
16:44 11.1 °F 4.1 °F 1039.2 in Calm     62 % 0.0 in 62.0 W/m2 SCT
16:47 11.1 °F 4.1 °F 1039.2 in Calm     62 % 0.0 in 47.0 W/m2 SCT
16:50 11.1 °F 4.1 °F 1039.2 in Calm     62 % 0.0 in 46.0 W/m2 SCT
16:53 10.6 °F 3.6 °F 1039.2 in Calm     62 % 0.0 in 37.0 W/m2 BKN
16:58 10.0 °F 3.1 °F 1039.2 in Calm     62 % 0.0 in 32.0 W/m2 BKN
16:59 10.0 °F 3.1 °F 1039.2 in Calm     62 % 0.0 in 30.0 W/m2 BKN
17:00 10.0 °F 3.1 °F 1039.2 in Calm     62 % 0.0 in 28.0 W/m2 BKN
17:04 9.4 °F 2.5 °F 1039.2 in Calm     62 % 0.0 in 21.0 W/m2 BKN
17:09 8.9 °F 2.0 °F 1039.2 in Calm     62 % 0.0 in 18.0 W/m2 BKN
17:10 8.9 °F 2.0 °F 1039.2 in Calm     62 % 0.0 in 16.0 W/m2 BKN
17:15 8.3 °F 1.7 °F 1039.2 in Calm     63 % 0.0 in 14.0 W/m2 BKN
17:16 8.3 °F 1.7 °F 1039.2 in Calm     63 % 0.0 in 12.0 W/m2 BKN
17:21 8.3 °F 1.7 °F 1039.2 in Calm     63 % 0.0 in 11.0 W/m2 BKN
17:23 7.8 °F 1.2 °F 1039.2 in Calm     63 % 0.0 in 11.0 W/m2 BKN
17:25 7.8 °F 1.4 °F 1039.2 in Calm     64 % 0.0 in 9.0 W/m2 BKN
17:30 7.8 °F 1.8 °F 1039.2 in Calm     66 % 0.0 in 7.0 W/m2 BKN
17:32 7.8 °F 2.1 °F 1039.2 in Calm     67 % 0.0 in 5.0 W/m2 OVC
17:36 7.2 °F 1.5 °F 1039.2 in Calm     67 % 0.0 in 0.0 W/m2 OVC
17:37 7.2 °F 1.5 °F 1039.2 in Calm     67 % 0.0 in 0.0 W/m2 OVC
17:38 7.2 °F 1.5 °F 1039.2 in Calm     67 % 0.0 in 0.0 W/m2 OVC
17:42 7.2 °F 1.3 °F 1039.2 in Calm     66 % 0.0 in 0.0 W/m2 OVC
17:43 7.2 °F 1.5 °F 1039.2 in Calm     67 % 0.0 in 0.0 W/m2 OVC
17:45 6.7 °F 0.9 °F 1039.2 in Calm     67 % 0.0 in 0.0 W/m2 CLR
17:48 6.7 °F 0.9 °F 1039.2 in Calm     67 % 0.0 in 0.0 W/m2 CLR
17:51 6.7 °F 0.8 °F 1039.2 in Calm     66 % 0.0 in 0.0 W/m2 CLR
17:55 6.1 °F 0.2 °F 1039.2 in Calm     66 % 0.0 in 0.0 W/m2 CLR
17:56 6.1 °F 0.4 °F 1039.2 in Calm     67 % 0.0 in 0.0 W/m2 CLR
17:57 6.1 °F 0.4 °F 1039.2 in Calm     67 % 0.0 in 0.0 W/m2 CLR
18:02 6.1 °F 0.4 °F 1039.5 in Calm     67 % 0.0 in 0.0 W/m2 CLR
18:07 5.6 °F 0.3 °F 1039.5 in Calm     69 % 0.0 in 0.0 W/m2 CLR
18:08 5.6 °F 0.3 °F 1039.5 in Calm     69 % 0.0 in 0.0 W/m2 CLR
18:13 5.6 °F 0.7 °F 1039.2 in Calm     71 % 0.0 in 0.0 W/m2 CLR
18:15 5.6 °F 0.7 °F 1039.2 in Calm     71 % 0.0 in 0.0 W/m2 CLR
18:20 5.0 °F 0.4 °F 1039.2 in Calm     72 % 0.0 in 0.0 W/m2 CLR
18:21 5.0 °F 0.4 °F 1039.2 in Calm     72 % 0.0 in 0.0 W/m2 CLR
18:25 5.0 °F 0.2 °F 1039.5 in Calm     71 % 0.0 in 0.0 W/m2 CLR
18:30 5.0 °F 0.4 °F 1039.5 in Calm     72 % 0.0 in 0.0 W/m2 CLR
18:31 5.0 °F 0.4 °F 1039.5 in Calm     72 % 0.0 in 0.0 W/m2 CLR
18:36 5.0 °F 0.6 °F 1039.5 in Calm     73 % 0.0 in 0.0 W/m2 CLR
18:37 5.0 °F 0.6 °F 1039.5 in Calm     73 % 0.0 in 0.0 W/m2 CLR
18:42 5.0 °F 0.7 °F 1039.5 in Calm     74 % 0.0 in 0.0 W/m2 CLR
18:43 5.0 °F 0.7 °F 1039.5 in Calm     74 % 0.0 in 0.0 W/m2 CLR
18:48 4.4 °F 0.2 °F 1039.5 in Calm     74 % 0.0 in 0.0 W/m2 CLR
18:53 4.4 °F 0.6 °F 1039.5 in Calm     76 % 0.0 in 0.0 W/m2 CLR
18:56 3.9 °F -0.2 °F 1039.5 in Calm     75 % 0.0 in 0.0 W/m2 CLR
18:57 3.9 °F -0.2 °F 1039.5 in Calm     75 % 0.0 in 0.0 W/m2 CLR
19:02 3.9 °F 0.1 °F 1039.5 in Calm     76 % 0.0 in 0.0 W/m2 CLR
19:07 3.3 °F -0.3 °F 1039.5 in Calm     77 % 0.0 in 0.0 W/m2 CLR
19:11 3.9 °F 0.4 °F 1039.5 in Calm     78 % 0.0 in 0.0 W/m2 CLR
19:13 3.9 °F 0.4 °F 1039.5 in Calm     78 % 0.0 in 0.0 W/m2 CLR
19:18 3.9 °F 0.4 °F 1039.5 in Calm     78 % 0.0 in 0.0 W/m2 CLR
19:20 3.9 °F 0.6 °F 1039.5 in Calm     79 % 0.0 in 0.0 W/m2 CLR
19:24 3.9 °F 0.6 °F 1039.5 in Calm     79 % 0.0 in 0.0 W/m2 CLR
19:27 3.9 °F 0.6 °F 1039.5 in Calm     79 % 0.0 in 0.0 W/m2 CLR
19:34 3.3 °F -0.2 °F 1039.5 in Calm     78 % 0.0 in 0.0 W/m2 CLR
19:39 3.3 °F 0.1 °F 1039.5 in Calm     79 % 0.0 in 0.0 W/m2 CLR
19:41 3.3 °F 0.1 °F 1039.8 in Calm     79 % 0.0 in 0.0 W/m2 CLR
19:46 3.3 °F 0.2 °F 1039.8 in Calm     80 % 0.0 in 0.0 W/m2 CLR
19:47 3.3 °F 0.2 °F 1039.8 in Calm     80 % 0.0 in 0.0 W/m2 CLR
19:52 3.3 °F 0.2 °F 1039.5 in Calm     80 % 0.0 in 0.0 W/m2 CLR
19:57 3.3 °F 0.2 °F 1039.8 in Calm     80 % 0.0 in 0.0 W/m2 CLR
20:02 3.3 °F 0.2 °F 1039.8 in Calm     80 % 0.0 in 0.0 W/m2 CLR
20:04 3.3 °F 0.2 °F 1039.8 in Calm     80 % 0.0 in 0.0 W/m2 CLR
20:06 3.3 °F 0.2 °F 1039.8 in Calm     80 % 0.0 in 0.0 W/m2 CLR
20:09 3.9 °F 0.9 °F 1039.8 in Calm     81 % 0.0 in 0.0 W/m2 CLR
20:12 3.9 °F 1.1 °F 1039.8 in Calm     82 % 0.0 in 0.0 W/m2 CLR
20:14 3.9 °F 1.1 °F 1040.2 in Calm     82 % 0.0 in 0.0 W/m2 CLR
20:18 3.3 °F 0.6 °F 1040.2 in Calm     82 % 0.0 in 0.0 W/m2 CLR
20:21 3.3 °F 0.6 °F 1040.2 in Calm     82 % 0.0 in 0.0 W/m2 CLR
20:26 3.3 °F 0.6 °F 1039.8 in Calm     82 % 0.0 in 0.0 W/m2 CLR
20:27 3.3 °F 0.6 °F 1039.8 in Calm     82 % 0.0 in 0.0 W/m2 CLR
20:32 3.3 °F 0.6 °F 1039.8 in Calm     82 % 0.0 in 0.0 W/m2 CLR
20:37 3.3 °F 0.6 °F 1039.8 in Calm     82 % 0.0 in 0.0 W/m2 CLR
20:42 3.3 °F 0.6 °F 1039.8 in Calm     82 % 0.0 in 0.0 W/m2 CLR
20:43 3.3 °F 0.6 °F 1039.8 in Calm     82 % 0.0 in 0.0 W/m2 CLR
20:48 3.3 °F 0.6 °F 1039.8 in Calm     82 % 0.0 in 0.0 W/m2 CLR
20:50 3.3 °F 0.6 °F 1040.2 in Calm     82 % 0.0 in 0.0 W/m2 CLR
20:51 2.8 °F 0.2 °F 1039.8 in Calm     83 % 0.0 in 0.0 W/m2 CLR
20:56 2.8 °F 0.2 °F 1039.8 in Calm     83 % 0.0 in 0.0 W/m2 CLR
20:58 2.8 °F 0.2 °F 1039.8 in Calm     83 % 0.0 in 0.0 W/m2 CLR
21:02 2.8 °F 0.3 °F 1039.8 in Calm     84 % 0.0 in 0.0 W/m2 CLR
21:07 2.8 °F 0.3 °F 1039.8 in Calm     84 % 0.0 in 0.0 W/m2 CLR
21:09 2.2 °F -0.2 °F 1039.8 in Calm     84 % 0.0 in 0.0 W/m2 CLR
21:14 2.2 °F -0.2 °F 1039.8 in Calm     84 % 0.0 in 0.0 W/m2 CLR
21:15 2.2 °F -0.2 °F 1039.8 in Calm     84 % 0.0 in 0.0 W/m2 CLR
21:20 2.2 °F -0.2 °F 1040.2 in Calm     84 % 0.0 in 0.0 W/m2 CLR
21:24 2.2 °F -0.2 °F 1040.2 in Calm     84 % 0.0 in 0.0 W/m2 CLR
21:26 2.2 °F -0.2 °F 1040.2 in Calm     84 % 0.0 in 0.0 W/m2 CLR
21:29 2.2 °F -0.4 °F 1040.2 in Calm     83 % 0.0 in 0.0 W/m2 CLR
21:33 2.8 °F 0.2 °F 1040.2 in Calm     83 % 0.0 in 0.0 W/m2 CLR
21:36 2.8 °F 0.2 °F 1040.2 in Calm     83 % 0.0 in 0.0 W/m2 CLR
21:39 2.8 °F 0.2 °F 1040.2 in Calm     83 % 0.0 in 0.0 W/m2 CLR
21:43 2.2 °F -0.2 °F 1040.2 in Calm     84 % 0.0 in 0.0 W/m2 CLR
21:44 2.2 °F -0.4 °F 1040.2 in Calm     83 % 0.0 in 0.0 W/m2 CLR
21:49 2.2 °F -0.4 °F 1040.2 in Calm     83 % 0.0 in 0.0 W/m2 CLR
21:50 2.2 °F -0.4 °F 1040.2 in Calm     83 % 0.0 in 0.0 W/m2 CLR
21:55 2.2 °F -0.7 °F 1040.2 in Calm     81 % 0.0 in 0.0 W/m2 CLR
22:00 2.2 °F -0.6 °F 1040.2 in Calm     82 % 0.0 in 0.0 W/m2 CLR
22:02 2.2 °F -0.4 °F 1040.2 in Calm     83 % 0.0 in 0.0 W/m2 CLR
22:05 2.2 °F -0.2 °F 1040.2 in Calm     84 % 0.0 in 0.0 W/m2 CLR
22:07 2.2 °F -0.2 °F 1040.2 in Calm     84 % 0.0 in 0.0 W/m2 CLR
22:13 2.2 °F -0.1 °F 1040.2 in Calm     85 % 0.0 in 0.0 W/m2 CLR
22:18 2.2 °F -0.1 °F 1039.8 in Calm     85 % 0.0 in 0.0 W/m2 CLR
22:19 2.2 °F -0.1 °F 1040.2 in Calm     85 % 0.0 in 0.0 W/m2 CLR
22:24 2.2 °F -0.2 °F 1039.8 in Calm     84 % 0.0 in 0.0 W/m2 CLR
22:29 2.2 °F -0.2 °F 1039.8 in Calm     84 % 0.0 in 0.0 W/m2 CLR
22:32 2.2 °F -0.2 °F 1039.8 in Calm     84 % 0.0 in 0.0 W/m2 CLR
22:37 2.2 °F -0.2 °F 1039.8 in Calm     84 % 0.0 in 0.0 W/m2 CLR
22:40 1.7 °F -0.6 °F 1039.8 in Calm     85 % 0.0 in 0.0 W/m2 CLR
22:43 1.7 °F -0.6 °F 1039.8 in Calm     85 % 0.0 in 0.0 W/m2 CLR
22:48 1.7 °F -0.6 °F 1039.8 in Calm     85 % 0.0 in 0.0 W/m2 CLR
22:50 1.7 °F -0.6 °F 1039.8 in Calm     85 % 0.0 in 0.0 W/m2 CLR
22:55 1.7 °F -0.6 °F 1039.8 in Calm     85 % 0.0 in 0.0 W/m2 CLR
22:56 1.7 °F -0.6 °F 1039.8 in Calm     85 % 0.0 in 0.0 W/m2 CLR
23:01 1.7 °F -0.6 °F 1039.8 in Calm     85 % 0.0 in 0.0 W/m2 CLR
23:06 1.7 °F -0.6 °F 1039.8 in Calm     85 % 0.0 in 0.0 W/m2 CLR
23:09 1.7 °F -0.6 °F 1040.2 in Calm     85 % 0.0 in 0.0 W/m2 CLR
23:11 1.7 °F -0.6 °F 1039.8 in Calm     85 % 0.0 in 0.0 W/m2 CLR
23:14 1.1 °F -1.1 °F 1040.2 in Calm     85 % 0.0 in 0.0 W/m2 CLR
23:16 1.1 °F -1.1 °F 1040.2 in Calm     85 % 0.0 in 0.0 W/m2 CLR
23:21 1.1 °F -1.1 °F 1040.2 in Calm     85 % 0.0 in 0.0 W/m2 CLR
23:26 1.1 °F -0.9 °F 1040.2 in Calm     86 % 0.0 in 0.0 W/m2 CLR
23:27 1.1 °F -0.9 °F 1040.2 in Calm     86 % 0.0 in 0.0 W/m2 CLR
23:29 1.1 °F -0.9 °F 1040.2 in Calm     86 % 0.0 in 0.0 W/m2 CLR
23:32 1.1 °F -1.1 °F 1040.2 in Calm     85 % 0.0 in 0.0 W/m2 CLR
23:37 1.1 °F -0.9 °F 1040.2 in Calm     86 % 0.0 in 0.0 W/m2 CLR
23:38 1.1 °F -0.9 °F 1040.2 in Calm     86 % 0.0 in 0.0 W/m2 CLR
23:39 1.1 °F -0.9 °F 1040.2 in Calm     86 % 0.0 in 0.0 W/m2 CLR
23:44 1.1 °F -0.9 °F 1040.2 in Calm     86 % 0.0 in 0.0 W/m2 CLR
23:49 1.1 °F -0.9 °F 1040.2 in Calm     86 % 0.0 in 0.0 W/m2 CLR
23:54 1.1 °F -0.9 °F 1040.2 in Calm     86 % 0.0 in 0.0 W/m2 CLR
23:56 1.1 °F -0.8 °F 1040.2 in Calm     87 % 0.0 in 0.0 W/m2 CLR
Lo Temps de Massalio
Compliments of Weather Underground - 1.75 mb